Time;durP1;ratioP1;P1;durP2;ratioP2;P2;SDS_P1;SDS_P2;PMS_P1;PMS_P2;Temp;Humidity;BMP_temperature;BMP_pressure;BME280_temperature;BME280_humidity;BME280_pressure;Samples;Min_cycle;Max_cycle;Signal;HPM_P1;HPM_P2
2024/01/25 00:00:57;;;;;;;22.57;17.50;;;8.60;99.90;;;;;;4973993;28;20593;-68
2024/01/25 00:03:24;;;;;;;26.97;17.50;;;8.60;99.90;;;;;;4972412;28;20194;-68
2024/01/25 00:05:51;;;;;;;22.90;17.67;;;8.60;99.90;;;;;;4984946;28;20401;-68
2024/01/25 00:08:18;;;;;;;28.27;18.40;;;8.60;99.90;;;;;;4973830;28;20205;-68
2024/01/25 00:10:45;;;;;;;32.13;17.40;;;8.60;99.90;;;;;;4965707;28;20202;-68
2024/01/25 00:13:12;;;;;;;24.33;18.30;;;8.60;99.90;;;;;;4984246;28;20198;-68
2024/01/25 00:15:39;;;;;;;30.63;18.67;;;8.60;99.90;;;;;;4969838;28;20198;-69
2024/01/25 00:18:06;;;;;;;29.70;18.83;;;8.70;99.90;;;;;;4987419;28;20248;-68
2024/01/25 00:20:33;;;;;;;30.83;17.90;;;8.70;99.90;;;;;;4973569;28;20202;-68
2024/01/25 00:23:00;;;;;;;29.83;18.43;;;8.70;99.90;;;;;;4967587;28;20213;-63
2024/01/25 00:25:27;;;;;;;29.13;17.70;;;8.70;99.90;;;;;;4991278;28;20205;-66
2024/01/25 00:27:54;;;;;;;30.30;18.40;;;8.70;99.90;;;;;;4984170;28;20201;-63
2024/01/25 00:30:21;;;;;;;20.97;18.43;;;8.80;99.90;;;;;;4972310;28;20193;-63
2024/01/25 00:32:49;;;;;;;22.93;18.43;;;8.70;99.90;;;;;;4973634;28;20689;-68
2024/01/25 00:35:16;;;;;;;26.67;18.07;;;8.70;99.90;;;;;;4953023;28;20397;-68
2024/01/25 00:37:44;;;;;;;29.50;18.03;;;8.70;99.90;;;;;;4985535;28;20243;-68
2024/01/25 00:40:13;;;;;;;22.47;18.00;;;8.70;99.90;;;;;;4972452;28;20685;-66
2024/01/25 00:42:48;;;;;;;35.90;19.23;;;8.70;99.90;;;;;;4964354;28;20218;-69
2024/01/25 00:45:16;;;;;;;27.67;18.00;;;8.70;99.90;;;;;;4986062;28;20264;-68
2024/01/25 00:47:43;;;;;;;27.70;17.67;;;8.70;99.90;;;;;;4987573;28;20775;-65
2024/01/25 00:50:11;;;;;;;24.77;17.63;;;8.70;99.90;;;;;;4986337;28;20216;-67
2024/01/25 00:52:39;;;;;;;23.77;17.43;;;8.70;99.90;;;;;;4969566;28;20205;-67
2024/01/25 00:55:06;;;;;;;24.37;18.10;;;8.70;99.90;;;;;;4987560;28;20338;-67
2024/01/25 00:57:34;;;;;;;25.70;17.30;;;8.70;99.90;;;;;;4983760;28;20198;-67
2024/01/25 01:00:02;;;;;;;31.10;18.47;;;8.70;99.90;;;;;;4967380;28;20340;-68
2024/01/25 01:02:35;;;;;;;29.23;17.93;;;8.70;99.90;;;;;;4986630;28;20601;-68
2024/01/25 01:05:02;;;;;;;37.73;18.00;;;8.60;99.90;;;;;;4963185;28;20222;-68
2024/01/25 01:07:29;;;;;;;22.03;18.27;;;8.60;99.90;;;;;;4971022;28;20217;-68
2024/01/25 01:09:57;;;;;;;26.63;17.30;;;8.60;99.90;;;;;;4985430;28;20213;-68
2024/01/25 01:12:24;;;;;;;19.83;16.73;;;8.50;99.90;;;;;;4986778;28;20540;-68
2024/01/25 01:14:50;;;;;;;28.93;17.23;;;8.50;99.90;;;;;;4986827;28;20225;-68
2024/01/25 01:17:18;;;;;;;22.23;17.90;;;8.50;99.90;;;;;;4986955;28;20612;-68
2024/01/25 01:19:45;;;;;;;23.73;18.20;;;8.50;99.90;;;;;;4982936;28;20770;-68
2024/01/25 01:22:12;;;;;;;30.60;17.87;;;8.50;99.90;;;;;;4987935;28;20305;-67
2024/01/25 01:24:39;;;;;;;22.20;17.33;;;8.50;99.90;;;;;;4986566;28;20560;-66
2024/01/25 01:27:06;;;;;;;26.80;17.17;;;8.50;99.90;;;;;;4988961;28;20199;-67
2024/01/25 01:29:33;;;;;;;24.20;17.97;;;8.50;99.90;;;;;;4969246;28;20201;-68
2024/01/25 01:32:00;;;;;;;26.57;17.40;;;8.50;99.90;;;;;;4981193;28;20205;-62
2024/01/25 01:34:27;;;;;;;23.67;17.37;;;8.50;99.90;;;;;;4985007;28;20198;-63
2024/01/25 01:36:54;;;;;;;46.50;19.03;;;8.50;99.90;;;;;;4968219;28;20213;-60
2024/01/25 01:39:21;;;;;;;25.27;18.03;;;8.40;99.90;;;;;;4986628;28;20281;-62
2024/01/25 01:41:49;;;;;;;26.17;18.13;;;8.50;99.90;;;;;;4984362;28;20298;-69
2024/01/25 01:44:16;;;;;;;19.23;16.83;;;8.50;99.90;;;;;;4969310;28;20296;-68
2024/01/25 01:46:43;;;;;;;42.17;19.47;;;8.40;99.90;;;;;;4969949;28;20205;-67
2024/01/25 01:49:15;;;;;;;19.23;17.27;;;8.40;99.90;;;;;;4982957;28;20197;-68
2024/01/25 01:51:43;;;;;;;19.97;17.10;;;8.50;99.90;;;;;;4986671;28;20513;-69
2024/01/25 01:54:11;;;;;;;32.43;17.97;;;8.40;99.90;;;;;;4969163;28;20717;-69
2024/01/25 01:56:39;;;;;;;30.57;17.93;;;8.40;99.90;;;;;;4986162;28;20201;-68
2024/01/25 01:59:12;;;;;;;30.67;18.47;;;8.40;99.90;;;;;;4968280;28;20206;-69
2024/01/25 02:01:39;;;;;;;21.20;17.50;;;8.30;99.90;;;;;;4986162;28;20204;-69
2024/01/25 02:04:06;;;;;;;25.90;17.23;;;8.30;99.90;;;;;;4986296;28;20186;-68
2024/01/25 02:06:34;;;;;;;30.37;18.83;;;8.30;99.90;;;;;;4986869;28;20225;-66
2024/01/25 02:09:01;;;;;;;27.23;18.80;;;8.30;99.90;;;;;;4985759;28;20658;-67
2024/01/25 02:11:28;;;;;;;29.57;18.97;;;8.30;99.90;;;;;;4983250;28;20197;-68
2024/01/25 02:13:56;;;;;;;26.63;19.03;;;8.30;99.90;;;;;;4984386;28;20189;-69
2024/01/25 02:16:23;;;;;;;28.93;18.03;;;8.20;99.90;;;;;;4955997;28;20206;-69
2024/01/25 02:18:54;;;;;;;36.40;19.27;;;8.20;99.90;;;;;;4971186;28;20229;-68
2024/01/25 02:21:21;;;;;;;19.40;17.37;;;8.20;99.90;;;;;;4972586;28;20195;-68
2024/01/25 02:23:48;;;;;;;24.27;17.47;;;8.10;99.90;;;;;;4989436;28;20243;-67
2024/01/25 02:26:15;;;;;;;23.80;17.70;;;8.00;99.90;;;;;;4969372;28;20681;-68
2024/01/25 02:28:42;;;;;;;27.93;17.63;;;7.90;99.90;;;;;;4984672;28;20190;-68
2024/01/25 02:31:09;;;;;;;27.23;18.07;;;7.70;99.90;;;;;;4963338;28;20190;-69
2024/01/25 02:33:36;;;;;;;32.33;18.00;;;7.60;99.90;;;;;;4988403;28;20201;-68
2024/01/25 02:36:04;;;;;;;20.30;17.77;;;7.60;99.90;;;;;;4968671;28;20197;-68
2024/01/25 02:38:30;;;;;;;22.53;18.73;;;7.50;99.90;;;;;;4949130;28;20687;-69
2024/01/25 02:40:57;;;;;;;31.37;17.53;;;7.50;99.90;;;;;;4985824;28;20673;-68
2024/01/25 02:43:24;;;;;;;24.70;18.30;;;7.40;99.90;;;;;;4984695;28;20194;-63
2024/01/25 02:45:51;;;;;;;19.47;17.47;;;7.30;99.90;;;;;;4960057;28;20232;-67
2024/01/25 02:48:18;;;;;;;23.33;17.70;;;7.30;99.90;;;;;;4960347;28;20618;-63
2024/01/25 02:50:45;;;;;;;37.63;17.97;;;7.30;99.90;;;;;;4984263;28;20221;-63
2024/01/25 02:53:12;;;;;;;22.60;17.97;;;7.30;99.90;;;;;;4984832;28;20241;-64
2024/01/25 02:55:39;;;;;;;28.70;17.40;;;7.20;99.90;;;;;;4968545;28;20260;-64
2024/01/25 02:58:06;;;;;;;27.03;17.63;;;7.20;99.90;;;;;;4971975;28;20205;-63
2024/01/25 03:04:33;;;;;;;24.90;16.90;;;7.10;99.90;;;;;;4978588;28;20187;-62
2024/01/25 03:07:00;;;;;;;27.97;17.10;;;7.10;99.90;;;;;;4961902;28;20202;-63
2024/01/25 03:09:28;;;;;;;18.43;16.60;;;7.00;99.90;;;;;;4982175;28;20844;-64
2024/01/25 03:11:54;;;;;;;37.07;19.13;;;6.90;99.90;;;;;;4964301;28;20201;-62
2024/01/25 03:14:21;;;;;;;27.13;17.13;;;6.90;99.90;;;;;;4968513;28;20201;-63
2024/01/25 03:16:48;;;;;;;22.67;17.17;;;6.90;99.90;;;;;;4979973;28;20202;-61
2024/01/25 03:19:18;;;;;;;20.00;16.47;;;6.90;99.90;;;;;;4952957;28;20233;-60
2024/01/25 03:21:45;;;;;;;19.30;16.73;;;6.90;99.90;;;;;;4967226;28;20599;-60
2024/01/25 03:24:12;;;;;;;23.53;16.73;;;6.90;99.90;;;;;;4970332;28;20217;-60
2024/01/25 03:26:39;;;;;;;18.47;16.53;;;6.90;99.90;;;;;;4971438;28;20198;-61
2024/01/25 03:29:06;;;;;;;22.53;17.23;;;6.80;99.90;;;;;;4970161;28;20205;-61
2024/01/25 03:31:33;;;;;;;26.80;17.90;;;6.70;99.90;;;;;;4975384;28;20231;-63
2024/01/25 03:34:00;;;;;;;27.30;17.73;;;6.70;99.90;;;;;;4979386;28;20697;-63
2024/01/25 03:36:27;;;;;;;23.23;16.80;;;6.70;99.90;;;;;;4980786;28;20281;-63
2024/01/25 03:38:54;;;;;;;35.43;18.43;;;6.70;99.90;;;;;;4964003;28;20198;-63
2024/01/25 03:41:23;;;;;;;29.33;17.10;;;6.60;99.90;;;;;;4987792;28;20201;-63
2024/01/25 03:43:51;;;;;;;19.40;16.47;;;6.50;99.90;;;;;;4987009;28;20190;-66
2024/01/25 03:46:18;;;;;;;19.07;17.10;;;6.50;99.90;;;;;;4971168;28;20213;-63
2024/01/25 03:48:45;;;;;;;19.93;16.60;;;6.40;99.90;;;;;;4972435;28;20209;-64
2024/01/25 03:51:12;;;;;;;28.70;17.50;;;6.40;99.90;;;;;;4986572;28;20203;-64
2024/01/25 03:53:42;;;;;;;30.47;18.03;;;6.40;99.90;;;;;;4981475;28;20692;-68
2024/01/25 03:56:13;;;;;;;21.30;16.83;;;6.40;99.90;;;;;;4971071;28;20198;-68
2024/01/25 03:58:40;;;;;;;25.67;17.50;;;6.40;99.90;;;;;;4981983;28;20228;-68
2024/01/25 04:01:07;;;;;;;20.63;17.90;;;6.40;99.90;;;;;;4970169;28;20253;-68
2024/01/25 04:03:34;;;;;;;26.63;16.80;;;6.30;99.90;;;;;;4989550;28;20240;-66
2024/01/25 04:06:02;;;;;;;18.03;16.17;;;6.30;99.90;;;;;;4985812;28;20590;-66
2024/01/25 04:08:29;;;;;;;25.63;17.53;;;6.30;99.90;;;;;;4982765;28;20664;-68
2024/01/25 04:10:56;;;;;;;24.70;16.73;;;6.30;99.90;;;;;;4986423;28;20816;-67
2024/01/25 04:13:23;;;;;;;39.60;17.23;;;6.20;99.90;;;;;;4971152;28;20639;-66
2024/01/25 04:15:50;;;;;;;24.70;17.47;;;6.20;99.90;;;;;;4971360;28;20780;-68
2024/01/25 04:18:18;;;;;;;27.30;17.30;;;6.10;99.90;;;;;;4988697;28;20285;-69
2024/01/25 04:20:46;;;;;;;19.70;16.97;;;6.10;99.90;;;;;;4972831;28;20206;-69
2024/01/25 04:23:13;;;;;;;30.00;17.33;;;6.10;99.90;;;;;;4971305;28;20260;-69
2024/01/25 04:25:40;;;;;;;21.57;16.30;;;6.00;99.90;;;;;;4989055;28;20562;-69
2024/01/25 04:28:07;;;;;;;30.77;17.07;;;6.10;99.90;;;;;;4984744;28;20208;-68
2024/01/25 04:30:34;;;;;;;35.97;17.80;;;6.10;99.90;;;;;;4985712;28;20198;-69
2024/01/25 04:33:02;;;;;;;30.87;16.90;;;6.10;99.90;;;;;;4989521;28;20198;-68
2024/01/25 04:35:31;;;;;;;17.67;15.77;;;6.10;99.90;;;;;;4987216;28;20198;-69
2024/01/25 04:37:58;;;;;;;24.63;16.17;;;6.00;99.90;;;;;;4966490;28;20201;-69
2024/01/25 04:40:25;;;;;;;23.87;15.30;;;6.00;99.90;;;;;;4982543;28;20276;-69
2024/01/25 04:42:52;;;;;;;28.37;16.40;;;5.90;99.90;;;;;;4985908;28;20197;-67
2024/01/25 04:45:19;;;;;;;18.70;15.67;;;5.90;99.90;;;;;;4986795;28;20249;-69
2024/01/25 04:47:46;;;;;;;25.50;15.87;;;5.80;99.90;;;;;;4983318;28;20347;-70
2024/01/25 04:50:13;;;;;;;15.93;14.53;;;5.80;99.90;;;;;;4983921;28;20209;-70
2024/01/25 04:52:40;;;;;;;37.10;15.37;;;5.80;99.90;;;;;;4969804;28;20570;-69
2024/01/25 04:55:08;;;;;;;27.20;15.70;;;5.70;99.90;;;;;;4988194;28;20261;-69
2024/01/25 04:57:35;;;;;;;21.90;16.60;;;5.70;99.90;;;;;;4988716;28;20594;-68
2024/01/25 05:00:02;;;;;;;27.80;16.47;;;5.70;99.90;;;;;;4970445;28;20206;-69
2024/01/25 05:02:29;;;;;;;18.30;15.57;;;5.60;99.90;;;;;;4971465;28;20186;-63
2024/01/25 05:04:57;;;;;;;24.43;16.27;;;5.70;99.90;;;;;;4988467;28;20288;-62
2024/01/25 05:07:24;;;;;;;26.17;15.53;;;5.70;99.90;;;;;;4967321;28;20245;-63
2024/01/25 05:09:56;;;;;;;30.20;15.33;;;5.70;99.90;;;;;;4969952;28;20278;-62
2024/01/25 05:12:24;;;;;;;20.53;14.80;;;5.60;99.90;;;;;;4985963;28;20198;-67
2024/01/25 05:14:51;;;;;;;20.13;15.17;;;5.50;99.90;;;;;;4970638;28;20204;-67
2024/01/25 05:17:18;;;;;;;25.50;15.20;;;5.60;99.90;;;;;;4969093;28;20229;-67
2024/01/25 05:19:45;;;;;;;22.50;14.57;;;5.50;99.90;;;;;;4983108;28;20720;-68
2024/01/25 05:22:12;;;;;;;21.87;14.97;;;5.50;99.90;;;;;;4985717;28;20194;-68
2024/01/25 05:24:39;;;;;;;42.53;17.27;;;5.50;99.90;;;;;;4982269;28;20234;-68
2024/01/25 05:27:06;;;;;;;22.07;14.43;;;5.50;99.90;;;;;;4967798;28;20316;-68
2024/01/25 05:29:33;;;;;;;23.77;14.37;;;5.50;99.90;;;;;;4988291;28;20190;-66
2024/01/25 05:32:00;;;;;;;25.10;14.53;;;5.50;99.90;;;;;;4968907;28;20198;-68
2024/01/25 05:34:27;;;;;;;23.87;15.33;;;5.40;99.90;;;;;;4978816;28;20288;-63
2024/01/25 05:36:54;;;;;;;22.43;14.43;;;5.40;99.90;;;;;;4954372;28;20480;-63
2024/01/25 05:39:21;;;;;;;21.77;14.70;;;5.30;99.90;;;;;;4988149;28;20611;-63
2024/01/25 05:41:48;;;;;;;28.17;16.20;;;5.40;99.90;;;;;;4985154;28;20225;-64
2024/01/25 05:44:15;;;;;;;22.50;13.90;;;5.40;99.90;;;;;;4989747;28;20251;-62
2024/01/25 05:46:42;;;;;;;29.73;15.90;;;5.30;99.90;;;;;;4987849;28;20217;-69
2024/01/25 05:49:08;;;;;;;26.10;15.27;;;5.30;99.90;;;;;;4965621;28;20246;-63
2024/01/25 05:51:36;;;;;;;28.33;15.47;;;5.30;99.90;;;;;;4983183;28;20472;-63
2024/01/25 05:54:03;;;;;;;23.40;15.00;;;5.20;99.90;;;;;;4989225;28;20230;-63
2024/01/25 05:56:30;;;;;;;32.53;15.47;;;5.10;99.90;;;;;;4976731;28;20295;-62
2024/01/25 05:58:57;;;;;;;27.37;14.53;;;5.00;99.90;;;;;;4978685;28;20701;-63
2024/01/25 06:01:24;;;;;;;25.27;15.40;;;5.00;99.90;;;;;;4986673;28;20256;-63
2024/01/25 06:03:51;;;;;;;25.57;15.20;;;5.00;99.90;;;;;;4988532;28;20204;-63
2024/01/25 06:06:18;;;;;;;34.43;15.07;;;5.10;99.90;;;;;;4991221;28;20312;-63
2024/01/25 06:08:46;;;;;;;19.70;14.40;;;5.00;99.90;;;;;;4978035;28;20694;-63
2024/01/25 06:11:24;;;;;;;22.47;14.70;;;5.00;99.90;;;;;;4987706;28;20515;-65
2024/01/25 06:13:53;;;;;;;36.30;16.50;;;5.00;99.90;;;;;;4976721;28;20214;-67
2024/01/25 06:16:20;;;;;;;25.43;15.63;;;5.00;99.90;;;;;;4960513;28;20206;-68
2024/01/25 06:18:48;;;;;;;45.47;15.37;;;5.00;99.90;;;;;;4976157;28;20212;-66
2024/01/25 06:21:15;;;;;;;31.40;15.80;;;5.00;99.90;;;;;;4985822;28;20233;-68
2024/01/25 06:23:42;;;;;;;18.80;14.87;;;5.00;99.90;;;;;;4981646;28;20194;-69
2024/01/25 06:26:09;;;;;;;15.83;14.13;;;5.00;99.90;;;;;;4966498;28;20210;-69
2024/01/25 06:28:35;;;;;;;37.50;15.17;;;4.90;99.90;;;;;;4986140;28;20550;-67
2024/01/25 06:31:03;;;;;;;25.97;14.43;;;4.90;99.90;;;;;;4976231;28;20647;-69
2024/01/25 06:33:29;;;;;;;22.37;15.10;;;4.90;99.90;;;;;;4971118;28;20285;-68
2024/01/25 06:35:58;;;;;;;20.47;14.60;;;4.90;99.90;;;;;;4989043;28;20661;-67
2024/01/25 06:38:25;;;;;;;20.20;14.63;;;4.90;99.90;;;;;;4958630;28;20202;-67
2024/01/25 06:40:52;;;;;;;27.43;13.70;;;4.90;99.90;;;;;;4979896;28;20198;-68
2024/01/25 06:43:19;;;;;;;26.13;14.70;;;4.80;99.90;;;;;;4971499;28;20240;-68
2024/01/25 06:45:46;;;;;;;18.67;13.27;;;4.80;99.90;;;;;;4988955;28;20210;-68
2024/01/25 06:48:13;;;;;;;34.20;14.33;;;4.80;99.90;;;;;;4983763;28;20632;-67
2024/01/25 06:50:40;;;;;;;25.13;13.90;;;4.80;99.90;;;;;;4964441;28;20220;-67
2024/01/25 06:53:07;;;;;;;23.97;14.60;;;4.70;99.90;;;;;;4966247;28;20279;-68
2024/01/25 06:55:34;;;;;;;38.70;13.67;;;4.70;99.90;;;;;;4986435;28;20253;-66
2024/01/25 06:58:01;;;;;;;29.90;14.53;;;4.60;99.90;;;;;;4964044;28;20599;-67
2024/01/25 07:00:28;;;;;;;23.87;14.77;;;4.70;99.90;;;;;;4976082;28;20190;-67
2024/01/25 07:02:56;;;;;;;27.27;15.13;;;4.70;99.90;;;;;;4980193;28;20256;-68
2024/01/25 07:05:24;;;;;;;38.87;14.70;;;4.70;99.90;;;;;;4962610;28;20205;-68
2024/01/25 07:07:51;;;;;;;29.10;14.80;;;4.60;99.90;;;;;;4973546;28;20209;-67
2024/01/25 07:10:18;;;;;;;21.63;13.37;;;4.60;99.90;;;;;;4987490;28;20197;-67
2024/01/25 07:12:45;;;;;;;20.17;14.40;;;4.60;99.90;;;;;;4971672;28;20654;-66
2024/01/25 07:15:12;;;;;;;18.87;13.83;;;4.70;99.90;;;;;;4969522;28;20202;-67
2024/01/25 07:17:40;;;;;;;34.43;14.70;;;4.70;99.90;;;;;;4974872;28;20264;-68
2024/01/25 07:20:07;;;;;;;21.43;15.33;;;4.70;99.90;;;;;;4974883;28;20291;-68
2024/01/25 07:22:34;;;;;;;21.00;14.13;;;4.80;99.90;;;;;;4989309;28;20219;-68
2024/01/25 07:25:02;;;;;;;20.43;14.30;;;4.80;99.90;;;;;;4990271;28;20584;-68
2024/01/25 07:27:29;;;;;;;25.53;14.83;;;4.90;99.90;;;;;;4992214;28;20623;-69
2024/01/25 07:29:56;;;;;;;24.70;14.50;;;4.90;99.90;;;;;;4957048;28;20265;-68
2024/01/25 07:32:26;;;;;;;35.90;14.90;;;5.00;99.90;;;;;;4968800;28;20518;-68
2024/01/25 07:34:53;;;;;;;31.43;14.03;;;5.00;99.90;;;;;;4991364;28;20194;-68
2024/01/25 07:37:21;;;;;;;21.67;14.60;;;5.10;99.90;;;;;;4974156;28;20605;-68
2024/01/25 07:39:48;;;;;;;27.80;14.00;;;5.20;99.90;;;;;;4991738;28;20982;-67
2024/01/25 07:42:15;;;;;;;20.77;13.80;;;5.30;99.90;;;;;;4990940;28;20208;-68
2024/01/25 07:44:42;;;;;;;22.10;13.90;;;5.30;99.90;;;;;;4973133;28;20296;-69
2024/01/25 07:47:09;;;;;;;26.37;14.63;;;5.40;99.90;;;;;;4946161;28;20217;-69
2024/01/25 07:49:36;;;;;;;27.77;14.67;;;5.50;99.90;;;;;;4989495;28;20255;-68
2024/01/25 07:52:03;;;;;;;21.40;14.03;;;5.60;99.90;;;;;;4964066;28;20251;-68
2024/01/25 07:54:30;;;;;;;31.63;16.13;;;5.70;99.90;;;;;;4987130;28;20341;-68
2024/01/25 07:56:58;;;;;;;24.00;14.53;;;5.80;99.90;;;;;;4983441;28;20198;-68
2024/01/25 07:59:25;;;;;;;27.20;16.27;;;5.80;99.90;;;;;;4989929;28;20217;-68
2024/01/25 08:01:52;;;;;;;27.33;15.30;;;5.80;99.90;;;;;;4973622;28;20205;-68
2024/01/25 08:04:19;;;;;;;27.20;15.23;;;5.90;99.90;;;;;;4969623;28;20209;-68
2024/01/25 08:06:46;;;;;;;36.23;16.97;;;6.00;99.90;;;;;;4983268;28;20725;-68
2024/01/25 08:09:14;;;;;;;46.00;17.20;;;5.90;99.90;;;;;;4998771;28;20208;-68
2024/01/25 08:11:41;;;;;;;31.53;15.70;;;6.00;99.90;;;;;;4970087;28;20261;-68
2024/01/25 08:14:08;;;;;;;30.00;16.63;;;6.10;99.90;;;;;;4986671;28;20604;-68
2024/01/25 08:16:35;;;;;;;28.87;16.73;;;6.20;99.90;;;;;;4954403;28;20311;-68
2024/01/25 08:19:04;;;;;;;33.17;16.90;;;6.30;99.90;;;;;;4985538;28;20715;-68
2024/01/25 08:21:31;;;;;;;36.60;16.83;;;6.50;99.90;;;;;;4963488;28;20381;-67
2024/01/25 08:23:59;;;;;;;31.87;17.20;;;6.50;99.90;;;;;;4960255;28;20291;-68
2024/01/25 08:26:26;;;;;;;32.23;18.40;;;6.60;99.90;;;;;;4971795;28;20601;-68
2024/01/25 08:28:53;;;;;;;24.30;16.60;;;6.70;99.90;;;;;;4977538;28;20201;-66
2024/01/25 08:31:20;;;;;;;30.27;18.43;;;6.80;99.90;;;;;;4977684;28;20696;-69
2024/01/25 08:33:47;;;;;;;28.17;18.03;;;6.90;99.90;;;;;;4986679;28;20216;-68
2024/01/25 08:36:18;;;;;;;27.17;19.57;;;7.00;99.90;;;;;;4989069;28;20206;-68
2024/01/25 08:38:45;;;;;;;33.00;18.70;;;7.00;99.90;;;;;;4973105;28;20328;-69
2024/01/25 08:41:15;;;;;;;27.07;18.37;;;7.10;99.90;;;;;;4968682;28;20201;-68
2024/01/25 08:43:42;;;;;;;29.63;18.13;;;7.10;99.90;;;;;;4986188;28;20216;-62
2024/01/25 08:46:09;;;;;;;25.97;18.53;;;7.20;99.90;;;;;;4990122;28;20260;-63
2024/01/25 08:48:36;;;;;;;30.43;18.57;;;7.20;99.90;;;;;;4969736;28;20250;-63
2024/01/25 08:51:04;;;;;;;28.80;18.80;;;7.30;99.90;;;;;;4974798;28;20205;-64
2024/01/25 08:53:31;;;;;;;26.10;18.10;;;7.20;99.90;;;;;;4982321;28;20725;-64
2024/01/25 08:55:58;;;;;;;29.73;19.03;;;7.20;99.90;;;;;;4983905;28;20272;-63
2024/01/25 08:58:24;;;;;;;37.13;19.23;;;7.20;99.90;;;;;;4981419;28;20190;-62
2024/01/25 09:00:51;;;;;;;25.47;18.13;;;7.30;99.90;;;;;;4953581;28;20202;-62
2024/01/25 09:03:19;;;;;;;23.07;18.60;;;7.30;99.90;;;;;;4988758;28;20194;-62
2024/01/25 09:05:46;;;;;;;25.20;19.10;;;7.30;99.90;;;;;;4968871;28;20208;-63
2024/01/25 09:08:14;;;;;;;33.20;18.43;;;7.50;99.90;;;;;;4990163;28;20233;-62
2024/01/25 09:10:42;;;;;;;24.20;17.87;;;7.50;99.90;;;;;;4988603;28;20474;-62
2024/01/25 09:13:09;;;;;;;29.23;19.07;;;7.60;99.90;;;;;;4979221;28;20212;-62
2024/01/25 09:15:37;;;;;;;24.37;17.60;;;7.50;99.90;;;;;;4966685;28;20247;-63
2024/01/25 09:18:04;;;;;;;32.70;18.20;;;7.60;99.90;;;;;;4984958;28;20640;-63
2024/01/25 09:20:31;;;;;;;41.37;18.03;;;7.50;99.90;;;;;;4961765;28;20292;-63
2024/01/25 09:22:59;;;;;;;19.93;17.67;;;7.80;99.90;;;;;;4976322;28;20267;-62
2024/01/25 09:25:26;;;;;;;35.73;19.57;;;7.90;99.90;;;;;;4970906;28;20194;-62
2024/01/25 09:27:53;;;;;;;27.57;18.60;;;8.00;99.90;;;;;;4981186;28;20249;-63
2024/01/25 09:30:21;;;;;;;32.37;19.00;;;8.30;99.90;;;;;;4984782;28;20202;-62
2024/01/25 09:32:48;;;;;;;24.00;18.30;;;8.40;99.90;;;;;;4970746;28;20539;-62
2024/01/25 09:35:41;;;;;;;26.90;19.07;;;8.60;99.90;;;;;;4988383;28;20303;-62
2024/01/25 09:38:09;;;;;;;23.33;18.53;;;8.40;99.90;;;;;;4986467;28;20709;-63
2024/01/25 09:40:36;;;;;;;36.20;18.97;;;8.30;99.90;;;;;;4959615;28;20239;-63
2024/01/25 09:43:04;;;;;;;28.50;18.87;;;8.50;99.90;;;;;;4968425;28;20198;-69
2024/01/25 09:45:31;;;;;;;36.43;19.50;;;8.70;99.90;;;;;;4971929;28;20654;-68
2024/01/25 09:47:59;;;;;;;26.23;17.83;;;8.90;99.90;;;;;;4971084;28;20279;-69
2024/01/25 09:50:26;;;;;;;22.87;17.73;;;8.90;99.90;;;;;;4961521;28;20236;-68
2024/01/25 09:52:57;;;;;;;31.67;17.93;;;8.90;99.90;;;;;;4949946;28;1094216;-68
2024/01/25 09:55:26;;;;;;;26.60;18.17;;;9.00;99.90;;;;;;4984670;28;20208;-69
2024/01/25 09:57:57;;;;;;;28.23;19.63;;;8.60;99.90;;;;;;4963497;28;20577;-69
2024/01/25 10:00:24;;;;;;;23.63;18.70;;;8.60;99.90;;;;;;4973233;28;20284;-67
2024/01/25 10:02:51;;;;;;;35.50;20.93;;;8.80;99.90;;;;;;4989571;28;20198;-69
2024/01/25 10:05:18;;;;;;;33.47;19.93;;;9.30;99.90;;;;;;4982064;28;20393;-68
2024/01/25 10:07:46;;;;;;;38.07;18.17;;;9.50;99.90;;;;;;4988839;28;20791;-69
2024/01/25 10:10:14;;;;;;;30.97;19.50;;;9.80;99.90;;;;;;4962487;28;20224;-68
2024/01/25 10:12:42;;;;;;;32.73;19.07;;;9.80;99.90;;;;;;4986499;28;20358;-68
2024/01/25 10:15:10;;;;;;;34.50;18.87;;;9.70;99.90;;;;;;4970352;28;20204;-67
2024/01/25 10:17:38;;;;;;;26.17;19.47;;;9.90;99.90;;;;;;4988403;28;20208;-68
2024/01/25 10:20:26;;;;;;;25.73;18.83;;;10.10;99.90;;;;;;4959353;28;20317;-69
2024/01/25 10:22:58;;;;;;;36.27;19.17;;;10.60;99.90;;;;;;4977488;28;20205;-68
2024/01/25 10:25:27;;;;;;;32.73;19.47;;;10.70;99.90;;;;;;4988177;28;20202;-68
2024/01/25 10:27:54;;;;;;;33.13;18.87;;;10.50;99.90;;;;;;4969609;28;20831;-67
2024/01/25 10:30:23;;;;;;;24.43;18.30;;;10.30;99.90;;;;;;4960980;28;20215;-68
2024/01/25 10:32:51;;;;;;;26.40;19.37;;;9.60;99.90;;;;;;4986514;28;20238;-68
2024/01/25 10:35:20;;;;;;;27.70;18.40;;;9.80;99.90;;;;;;4970890;28;20388;-68
2024/01/25 10:37:52;;;;;;;36.83;18.70;;;9.40;99.90;;;;;;4965986;28;20295;-69
2024/01/25 10:40:20;;;;;;;28.23;19.57;;;9.60;99.90;;;;;;4984698;28;20201;-68
2024/01/25 10:42:48;;;;;;;29.43;19.03;;;9.60;99.90;;;;;;4962003;28;20866;-68
2024/01/25 10:45:15;;;;;;;29.37;18.77;;;9.50;99.90;;;;;;4965906;28;20606;-68
2024/01/25 10:47:44;;;;;;;30.23;19.27;;;9.80;99.90;;;;;;4975914;28;20662;-67
2024/01/25 10:50:13;;;;;;;23.50;18.00;;;9.90;99.90;;;;;;4980326;28;20216;-68
2024/01/25 10:52:41;;;;;;;31.10;18.67;;;10.30;99.90;;;;;;4970545;28;20641;-62
2024/01/25 10:55:11;;;;;;;37.50;19.47;;;10.30;99.90;;;;;;4987746;28;20645;-63
2024/01/25 10:57:43;;;;;;;37.27;18.77;;;10.10;99.90;;;;;;4986512;28;20185;-63
2024/01/25 11:00:12;;;;;;;34.17;19.63;;;10.50;99.90;;;;;;4968773;28;20196;-62
2024/01/25 11:02:39;;;;;;;23.57;18.40;;;10.60;99.90;;;;;;4969376;28;20676;-64
2024/01/25 11:05:18;;;;;;;23.07;17.63;;;10.80;99.90;;;;;;4968589;28;20198;-63
2024/01/25 11:07:50;;;;;;;24.67;18.17;;;11.20;99.90;;;;;;4963316;28;20223;-64
2024/01/25 11:10:23;;;;;;;28.40;18.87;;;11.30;99.90;;;;;;4972987;28;20768;-63
2024/01/25 11:12:56;;;;;;;35.00;18.53;;;11.50;99.90;;;;;;4986323;28;20244;-63
2024/01/25 11:15:31;;;;;;;32.73;18.60;;;11.80;99.90;;;;;;4970432;28;20194;-63
2024/01/25 11:18:06;;;;;;;27.37;18.37;;;11.70;99.90;;;;;;4981281;28;20296;-62
2024/01/25 11:20:35;;;;;;;34.07;19.77;;;11.90;99.90;;;;;;4942263;28;20225;-62
2024/01/25 11:23:04;;;;;;;29.48;18.67;;;13.00;99.90;;;;;;4965460;28;20563;-62
2024/01/25 11:25:33;;;;;;;36.78;19.00;;;13.60;99.90;;;;;;4987619;28;20550;-61
2024/01/25 11:28:05;;;;;;;41.80;20.58;;;13.40;99.90;;;;;;4963081;28;20238;-62
2024/01/25 11:30:34;;;;;;;25.02;18.23;;;13.30;99.90;;;;;;4959508;28;21081;-63
2024/01/25 11:33:04;;;;;;;30.67;19.35;;;14.00;99.90;;;;;;4961659;28;20222;-62
2024/01/25 11:35:31;;;;;;;32.05;20.25;;;13.10;99.90;;;;;;4988299;28;20190;-62
2024/01/25 11:37:59;;;;;;;41.38;20.63;;;11.40;99.90;;;;;;4984713;28;20229;-62
2024/01/25 11:40:28;;;;;;;30.13;20.40;;;11.00;99.90;;;;;;4960886;28;20285;-63
2024/01/25 11:42:55;;;;;;;31.60;19.93;;;10.40;99.90;;;;;;4970800;28;20210;-63
2024/01/25 11:45:22;;;;;;;33.83;21.03;;;11.20;99.90;;;;;;4970374;28;20201;-63
2024/01/25 11:47:49;;;;;;;30.23;19.93;;;11.10;99.90;;;;;;4986680;28;20237;-63
2024/01/25 11:50:16;;;;;;;27.43;20.10;;;10.70;99.90;;;;;;4985714;28;20304;-64
2024/01/25 11:52:44;;;;;;;41.40;20.60;;;10.40;99.90;;;;;;4983236;28;20236;-63
2024/01/25 11:55:11;;;;;;;29.30;20.40;;;9.90;99.90;;;;;;4986282;28;20724;-63
2024/01/25 11:57:41;;;;;;;33.90;21.50;;;9.50;99.90;;;;;;4969628;28;20198;-63
2024/01/25 12:00:18;;;;;;;36.17;21.73;;;9.30;99.90;;;;;;4957863;28;20306;-63
2024/01/25 12:02:45;;;;;;;35.47;20.10;;;9.30;99.90;;;;;;4990909;28;20201;-68
2024/01/25 12:05:13;;;;;;;29.27;20.93;;;10.00;99.90;;;;;;4971789;28;20206;-68
2024/01/25 12:07:40;;;;;;;36.97;19.83;;;11.20;99.90;;;;;;4973187;28;20737;-68
2024/01/25 12:10:14;;;;;;;27.80;20.30;;;12.10;99.90;;;;;;4961160;28;20291;-69
2024/01/25 12:12:42;;;;;;;41.57;19.57;;;12.40;99.90;;;;;;4961177;28;20206;-63
2024/01/25 12:15:09;;;;;;;29.67;19.63;;;12.90;99.90;;;;;;4970934;28;20236;-63
2024/01/25 12:17:36;;;;;;;35.33;19.80;;;12.60;99.90;;;;;;4970874;28;20194;-62
2024/01/25 12:20:07;;;;;;;35.33;19.40;;;12.60;99.90;;;;;;4979472;28;20206;-63
2024/01/25 12:22:34;;;;;;;25.90;19.37;;;11.50;99.90;;;;;;4982386;28;20203;-62
2024/01/25 12:25:08;;;;;;;32.33;19.90;;;11.10;99.90;;;;;;4972069;28;20225;-64
2024/01/25 12:27:35;;;;;;;36.50;19.53;;;11.10;99.90;;;;;;4957162;28;20279;-62
2024/01/25 12:30:03;;;;;;;30.50;19.17;;;10.30;99.90;;;;;;4977742;28;20191;-60
2024/01/25 12:32:30;;;;;;;22.83;18.90;;;10.50;99.90;;;;;;4972896;28;20213;-60
2024/01/25 12:35:03;;;;;;;22.10;18.87;;;10.90;99.90;;;;;;4971151;28;20206;-61
2024/01/25 12:37:31;;;;;;;37.77;19.70;;;11.10;99.90;;;;;;4989609;28;20260;-62
2024/01/25 12:39:58;;;;;;;31.80;20.27;;;10.80;99.90;;;;;;4988656;28;20513;-62
2024/01/25 12:42:25;;;;;;;34.07;19.60;;;10.50;99.90;;;;;;4985271;28;20193;-63